Sign-in with your pilot id or email, or register

ICAO: VIDP Name / Country: New Delhi / Palam / India
Latitude: 28.5665 Longitude: 77.1031
Total Arrivals:
Strict Standards: Non-static method AirportData::getarrflights() should not be called statically, assuming $this from incompatible context in /var/www/customers/vh-7192/web/home/phpvms/core/templates/airport_info.tpl on line 18
2
Total Departures:
Strict Standards: Non-static method AirportData::getdeptflights() should not be called statically, assuming $this from incompatible context in /var/www/customers/vh-7192/web/home/phpvms/core/templates/airport_info.tpl on line 21
2
Latest Arrival: MTA5PM (VABB-VIDP) Tibor Berces Latest Departure: MTA5PM (VIDP-VGZR) Tibor Berces
Metar: VIDP 271100Z 31006KT 6000 NSC 35/17 Q1004 NOSIG
More info

Charts for VIDP


NOTAM


Warning: file_get_contents(http://api.vateud.net/notams/VIDP.json): failed to open stream: Redirection limit reached, aborting in /var/www/customers/vh-7192/web/home/phpvms/core/common/NOTAMSData.class.php on line 18

Warning: Invalid argument supplied for foreach() in /var/www/customers/vh-7192/web/home/phpvms/core/common/NOTAMSData.class.php on line 22

New Delhi / Palam